Time;durP1;ratioP1;P1;durP2;ratioP2;P2;SDS_P1;SDS_P2;PMS_P1;PMS_P2;Temp;Humidity;BMP_temperature;BMP_pressure;BME280_temperature;BME280_humidity;BME280_pressure;Samples;Min_cycle;Max_cycle;Signal;HPM_P1;HPM_P2
2021/08/21 00:00:44;;;;;;;12.80;11.50;;;17.30;1.00;;;;;;5055902;28;20196;-60
2021/08/21 00:03:10;;;;;;;13.80;12.40;;;17.10;1.00;;;;;;5060863;28;20262;-59
2021/08/21 00:05:36;;;;;;;13.80;12.50;;;17.10;1.00;;;;;;5061960;28;20458;-58
2021/08/21 00:08:02;;;;;;;17.43;12.40;;;17.20;1.00;;;;;;5062111;28;20187;-59
2021/08/21 00:10:28;;;;;;;12.57;11.37;;;17.10;1.00;;;;;;5062989;28;20546;-58
2021/08/21 00:12:54;;;;;;;15.93;12.17;;;17.10;1.00;;;;;;5060161;28;20797;-59
2021/08/21 00:15:20;;;;;;;13.30;11.90;;;17.10;1.00;;;;;;5061199;28;20571;-59
2021/08/21 00:17:46;;;;;;;12.60;11.30;;;17.10;1.00;;;;;;5061174;28;20541;-59
2021/08/21 00:20:12;;;;;;;15.17;12.50;;;17.10;1.00;;;;;;5051929;28;20446;-59
2021/08/21 00:22:38;;;;;;;12.83;11.63;;;17.10;1.00;;;;;;5059423;28;20432;-60
2021/08/21 00:25:04;;;;;;;13.10;11.90;;;17.10;1.00;;;;;;5058121;28;20233;-59
2021/08/21 00:27:30;;;;;;;12.37;10.67;;;17.00;1.00;;;;;;5062870;28;20481;-59
2021/08/21 00:29:55;;;;;;;12.73;11.47;;;17.00;1.00;;;;;;5056436;28;20481;-59
2021/08/21 00:32:21;;;;;;;11.70;10.53;;;16.90;1.00;;;;;;5057997;28;20187;-59
2021/08/21 00:34:46;;;;;;;13.43;12.13;;;16.90;1.00;;;;;;5050340;28;20222;-59
2021/08/21 00:37:12;;;;;;;11.87;10.77;;;16.90;1.00;;;;;;5055934;28;20251;-59
2021/08/21 00:39:38;;;;;;;12.17;10.83;;;16.80;1.00;;;;;;5058974;28;20660;-59
2021/08/21 00:42:06;;;;;;;12.43;10.63;;;16.80;1.00;;;;;;5067453;28;20188;-59
2021/08/21 00:44:32;;;;;;;12.83;11.00;;;16.80;1.00;;;;;;5067845;28;20195;-60
2021/08/21 00:47:12;;;;;;;11.70;10.50;;;19.80;1.00;;;;;;5063388;28;20441;-59
2021/08/21 00:49:41;;;;;;;12.43;11.13;;;16.80;1.00;;;;;;5063163;28;21406;-58
2021/08/21 00:52:13;;;;;;;12.43;11.23;;;16.80;1.00;;;;;;5065265;28;20470;-58
2021/08/21 00:54:39;;;;;;;11.70;10.60;;;16.80;1.00;;;;;;5062098;28;20470;-60
2021/08/21 00:57:06;;;;;;;12.10;11.00;;;16.80;1.00;;;;;;5062307;28;20789;-59
2021/08/21 00:59:36;;;;;;;12.47;11.27;;;16.80;1.00;;;;;;5054081;28;20442;-59
2021/08/21 01:02:02;;;;;;;12.73;11.20;;;16.70;1.00;;;;;;5059446;28;20801;-59
2021/08/21 01:04:30;;;;;;;12.57;11.10;;;16.70;1.00;;;;;;5055973;28;20961;-59
2021/08/21 01:06:56;;;;;;;11.50;10.30;;;16.70;1.00;;;;;;5065795;28;20435;-58
2021/08/21 01:09:22;;;;;;;12.23;11.00;;;16.70;1.00;;;;;;5053915;28;20446;-58
2021/08/21 01:11:48;;;;;;;12.57;10.80;;;;;;;;;;5060483;28;20449;-59
2021/08/21 01:14:14;;;;;;;11.83;10.70;;;16.70;1.00;;;;;;5056648;28;20214;-58
2021/08/21 01:16:39;;;;;;;13.37;10.53;;;16.70;1.00;;;;;;5062248;28;20464;-58
2021/08/21 01:19:06;;;;;;;11.77;10.57;;;16.70;1.00;;;;;;5064608;28;20389;-59
2021/08/21 01:21:31;;;;;;;11.53;10.43;;;16.50;1.00;;;;;;5053286;28;20275;-59
2021/08/21 01:23:57;;;;;;;13.67;11.17;;;16.60;1.00;;;;;;5061335;28;20544;-58
2021/08/21 01:26:23;;;;;;;12.73;11.53;;;16.60;1.00;;;;;;5060797;28;20655;-57
2021/08/21 01:28:48;;;;;;;12.10;11.00;;;16.50;1.00;;;;;;5054957;28;20663;-57
2021/08/21 01:31:14;;;;;;;12.17;11.03;;;16.50;1.00;;;;;;5053538;28;20237;-58
2021/08/21 01:33:39;;;;;;;11.80;10.70;;;16.50;1.00;;;;;;5054994;28;20235;-58
2021/08/21 01:36:05;;;;;;;13.93;11.70;;;16.50;1.00;;;;;;5062520;28;20189;-58
2021/08/21 01:38:31;;;;;;;11.13;9.90;;;16.50;1.00;;;;;;5057319;28;20189;-59
2021/08/21 01:40:56;;;;;;;12.40;10.23;;;16.60;1.00;;;;;;5060824;28;20190;-58
2021/08/21 01:43:22;;;;;;;12.10;10.83;;;16.40;1.00;;;;;;5059615;28;20181;-59
2021/08/21 01:45:49;;;;;;;12.70;11.43;;;16.40;1.00;;;;;;5060021;28;20210;-60
2021/08/21 01:48:15;;;;;;;11.97;10.80;;;16.40;1.00;;;;;;5058645;28;20457;-59
2021/08/21 01:50:41;;;;;;;15.27;11.53;;;16.30;1.00;;;;;;5052624;28;20461;-58
2021/08/21 01:53:14;;;;;;;11.53;9.57;;;16.30;1.00;;;;;;5058781;28;20509;-58
2021/08/21 01:55:40;;;;;;;11.40;10.30;;;16.40;1.00;;;;;;5061013;28;20210;-59
2021/08/21 01:58:06;;;;;;;11.10;10.00;;;16.30;1.00;;;;;;5056567;28;20515;-59
2021/08/21 02:00:32;;;;;;;12.13;11.07;;;16.40;1.00;;;;;;5062293;28;20930;-58
2021/08/21 02:02:58;;;;;;;11.40;10.10;;;16.40;1.00;;;;;;5057757;28;20187;-59
2021/08/21 02:05:24;;;;;;;11.53;10.33;;;16.30;1.00;;;;;;5057752;28;20308;-59
2021/08/21 02:07:50;;;;;;;10.80;9.70;;;16.20;1.00;;;;;;5056269;28;20466;-58
2021/08/21 02:10:18;;;;;;;11.70;10.43;;;16.30;1.00;;;;;;5059970;28;20509;-59
2021/08/21 02:12:44;;;;;;;10.83;9.83;;;16.30;1.00;;;;;;5060731;28;20436;-59
2021/08/21 02:15:13;;;;;;;11.37;10.27;;;16.20;1.00;;;;;;5057246;28;20955;-58
2021/08/21 02:17:39;;;;;;;9.70;8.80;;;16.20;1.00;;;;;;5056117;28;20436;-59
2021/08/21 02:20:11;;;;;;;11.37;10.20;;;16.10;1.00;;;;;;5057897;28;20770;-58
2021/08/21 02:22:42;;;;;;;13.07;10.07;;;16.10;1.00;;;;;;5059495;28;20181;-59
2021/08/21 02:25:11;;;;;;;10.70;9.63;;;16.00;1.00;;;;;;5057209;28;20798;-59
2021/08/21 02:27:39;;;;;;;10.33;9.43;;;16.10;1.00;;;;;;5060378;28;20537;-59
2021/08/21 02:30:06;;;;;;;11.10;10.00;;;16.10;1.00;;;;;;5060324;28;21085;-58
2021/08/21 02:32:31;;;;;;;10.70;8.63;;;16.10;1.00;;;;;;5056671;28;20468;-59
2021/08/21 02:34:57;;;;;;;10.13;9.13;;;16.10;1.00;;;;;;5054591;28;21041;-58
2021/08/21 02:37:23;;;;;;;10.43;9.53;;;16.00;1.00;;;;;;5054199;28;20190;-60
2021/08/21 02:39:48;;;;;;;11.23;10.13;;;16.00;1.00;;;;;;5055062;28;20436;-58
2021/08/21 02:42:14;;;;;;;9.87;8.97;;;16.00;1.00;;;;;;5057404;28;20189;-59
2021/08/21 02:44:40;;;;;;;10.20;9.17;;;16.00;1.00;;;;;;5062101;28;20185;-58
2021/08/21 02:47:06;;;;;;;10.03;9.00;;;16.00;1.00;;;;;;5063912;28;20414;-58
2021/08/21 02:49:33;;;;;;;10.97;9.93;;;16.00;1.00;;;;;;5060260;28;20195;-59
2021/08/21 02:51:58;;;;;;;10.50;9.50;;;16.00;1.00;;;;;;5063889;28;20699;-57
2021/08/21 02:54:24;;;;;;;11.07;10.07;;;15.90;1.00;;;;;;5053920;28;20478;-57
2021/08/21 02:56:49;;;;;;;10.60;9.50;;;15.90;1.00;;;;;;5060359;28;20202;-59
2021/08/21 02:59:15;;;;;;;10.47;9.57;;;15.80;1.00;;;;;;5064673;28;20204;-61
2021/08/21 03:01:40;;;;;;;11.27;9.47;;;15.80;1.00;;;;;;5056052;28;20191;-59
2021/08/21 03:04:06;;;;;;;10.30;9.20;;;15.90;1.00;;;;;;5055724;28;20185;-60
2021/08/21 03:06:32;;;;;;;10.17;9.03;;;15.90;1.00;;;;;;5062655;28;20642;-59
2021/08/21 03:08:57;;;;;;;10.40;9.30;;;15.90;1.00;;;;;;5058613;28;20190;-59
2021/08/21 03:11:23;;;;;;;9.83;8.97;;;15.90;1.00;;;;;;5060208;28;20188;-58
2021/08/21 03:13:48;;;;;;;9.93;8.93;;;15.90;1.00;;;;;;5062251;28;20199;-58
2021/08/21 03:16:14;;;;;;;11.37;10.27;;;16.10;1.00;;;;;;5061863;28;20188;-58
2021/08/21 03:18:39;;;;;;;10.17;8.90;;;15.70;1.00;;;;;;5056470;28;20194;-59
2021/08/21 03:21:05;;;;;;;11.03;10.03;;;17.30;1.00;;;;;;5055854;28;20239;-58
2021/08/21 03:23:30;;;;;;;10.23;9.33;;;15.70;1.00;;;;;;5052865;28;20180;-59
2021/08/21 03:25:56;;;;;;;10.40;9.50;;;15.60;1.00;;;;;;5052694;28;20190;-59
2021/08/21 03:28:21;;;;;;;11.53;10.40;;;15.70;1.00;;;;;;5065200;28;20217;-59
2021/08/21 03:30:47;;;;;;;10.17;9.07;;;15.80;1.00;;;;;;5059105;28;20212;-59
2021/08/21 03:33:12;;;;;;;12.30;10.27;;;15.70;1.00;;;;;;5059238;28;20244;-60
2021/08/21 03:35:38;;;;;;;9.77;8.87;;;15.70;1.00;;;;;;5056999;28;20296;-58
2021/08/21 03:38:03;;;;;;;10.57;9.57;;;15.60;1.00;;;;;;5061356;28;20197;-60
2021/08/21 03:40:29;;;;;;;12.23;10.93;;;15.50;1.00;;;;;;5055205;28;20182;-58
2021/08/21 03:42:55;;;;;;;10.63;9.57;;;15.50;1.00;;;;;;5062980;28;20186;-58
2021/08/21 03:45:20;;;;;;;10.00;8.90;;;15.40;1.00;;;;;;5060972;28;20210;-59
2021/08/21 03:47:47;;;;;;;11.00;9.90;;;15.40;1.00;;;;;;5063536;28;20232;-57
2021/08/21 03:50:13;;;;;;;10.47;9.40;;;15.40;1.00;;;;;;5060366;28;20342;-59
2021/08/21 03:52:39;;;;;;;10.07;9.17;;;15.40;1.00;;;;;;5056048;28;20966;-58
2021/08/21 03:55:05;;;;;;;10.60;9.50;;;15.50;1.00;;;;;;5058384;28;20523;-58
2021/08/21 03:57:30;;;;;;;11.07;9.97;;;15.50;1.00;;;;;;5052991;28;20953;-59
2021/08/21 03:59:56;;;;;;;11.83;10.60;;;15.40;1.00;;;;;;5055101;28;20456;-58
2021/08/21 04:02:21;;;;;;;11.13;10.03;;;15.50;1.00;;;;;;5059540;28;20183;-58
2021/08/21 04:04:47;;;;;;;10.80;9.70;;;15.50;1.00;;;;;;5057039;28;20217;-58
2021/08/21 04:07:18;;;;;;;10.67;9.00;;;15.50;1.00;;;;;;5056253;28;20185;-58
2021/08/21 04:09:45;;;;;;;9.43;8.63;;;15.50;1.00;;;;;;5060499;28;20198;-59
2021/08/21 04:12:10;;;;;;;10.27;9.30;;;15.50;1.00;;;;;;5064247;28;20769;-59
2021/08/21 04:14:36;;;;;;;11.67;10.47;;;15.60;1.00;;;;;;5063226;28;20472;-60
2021/08/21 04:17:02;;;;;;;10.70;9.63;;;15.40;1.00;;;;;;5064315;28;20640;-58
2021/08/21 04:19:27;;;;;;;11.67;10.10;;;15.60;1.00;;;;;;5061904;28;20241;-58
2021/08/21 04:21:53;;;;;;;13.70;9.23;;;15.60;1.00;;;;;;5063903;28;20212;-58
2021/08/21 04:24:18;;;;;;;9.30;8.40;;;16.10;1.00;;;;;;5064582;28;20183;-60
2021/08/21 04:26:44;;;;;;;10.13;9.10;;;15.60;1.00;;;;;;5061978;28;20238;-61
2021/08/21 04:29:10;;;;;;;11.57;10.07;;;15.50;1.00;;;;;;5058578;28;20207;-59
2021/08/21 04:31:36;;;;;;;10.90;9.80;;;15.60;1.00;;;;;;5058360;28;20654;-59
2021/08/21 04:34:02;;;;;;;10.83;9.77;;;15.60;1.00;;;;;;5059172;28;20524;-59
2021/08/21 04:36:27;;;;;;;9.60;8.77;;;15.70;1.00;;;;;;5060322;28;20522;-59
2021/08/21 04:38:53;;;;;;;11.40;9.50;;;15.60;1.00;;;;;;5056570;28;20188;-58
2021/08/21 04:41:19;;;;;;;9.97;9.17;;;15.60;1.00;;;;;;5061627;28;20807;-59
2021/08/21 04:43:44;;;;;;;9.97;8.80;;;15.70;1.00;;;;;;5066326;28;20190;-58
2021/08/21 04:46:10;;;;;;;9.87;8.97;;;15.70;1.00;;;;;;5063534;28;20185;-59
2021/08/21 04:48:35;;;;;;;9.00;8.20;;;15.70;1.00;;;;;;5054346;28;20268;-58
2021/08/21 04:51:01;;;;;;;9.30;8.50;;;15.70;1.00;;;;;;5057640;28;20198;-59
2021/08/21 04:53:26;;;;;;;9.90;9.00;;;15.70;1.00;;;;;;5067100;28;20178;-58
2021/08/21 04:55:52;;;;;;;9.43;8.60;;;15.80;1.00;;;;;;5063457;28;20214;-60
2021/08/21 04:58:17;;;;;;;9.60;8.80;;;15.90;1.00;;;;;;5060143;28;20194;-58
2021/08/21 05:00:43;;;;;;;8.93;8.07;;;15.90;1.00;;;;;;5058778;28;20185;-58
2021/08/21 05:03:08;;;;;;;10.73;8.57;;;16.00;1.00;;;;;;5065721;28;20181;-58
2021/08/21 05:05:36;;;;;;;10.70;8.40;;;16.10;1.00;;;;;;5058912;28;20195;-58
2021/08/21 05:08:02;;;;;;;9.00;7.60;;;16.20;1.00;;;;;;5062470;28;20278;-58
2021/08/21 05:10:28;;;;;;;8.70;7.87;;;16.20;1.00;;;;;;5059065;28;20536;-58
2021/08/21 05:12:53;;;;;;;9.53;8.63;;;16.30;1.00;;;;;;5059173;28;20509;-58
2021/08/21 05:15:19;;;;;;;8.30;7.50;;;16.40;1.00;;;;;;5063105;28;20670;-57
2021/08/21 05:17:47;;;;;;;9.23;8.37;;;16.50;1.00;;;;;;5061900;28;20201;-59
2021/08/21 05:20:18;;;;;;;8.83;7.90;;;16.50;1.00;;;;;;5059618;28;20186;-58
2021/08/21 05:25:11;;;;;;;8.20;7.40;;;16.70;1.00;;;;;;5064607;28;20536;-57
2021/08/21 05:27:37;;;;;;;8.10;7.40;;;16.70;1.00;;;;;;5060462;28;20442;-60
2021/08/21 05:30:04;;;;;;;13.70;9.03;;;16.70;1.00;;;;;;5058534;28;20516;-59
2021/08/21 05:32:30;;;;;;;8.23;7.53;;;16.70;1.00;;;;;;5058074;28;20451;-58
2021/08/21 05:34:56;;;;;;;9.40;8.60;;;16.80;1.00;;;;;;5061899;28;20487;-59
2021/08/21 05:37:21;;;;;;;8.43;7.63;;;16.80;1.00;;;;;;5058757;28;20453;-58
2021/08/21 05:39:47;;;;;;;7.77;7.10;;;16.90;1.00;;;;;;5065735;28;20257;-57
2021/08/21 05:42:12;;;;;;;8.17;7.37;;;16.90;1.00;;;;;;5062894;28;20663;-59
2021/08/21 05:44:38;;;;;;;8.30;7.60;;;17.00;1.00;;;;;;5060103;28;20202;-58
2021/08/21 05:47:03;;;;;;;8.27;7.57;;;17.10;1.00;;;;;;5063780;28;20183;-58
2021/08/21 05:49:29;;;;;;;7.33;6.70;;;17.20;1.00;;;;;;5057592;28;20192;-58
2021/08/21 05:51:55;;;;;;;8.03;7.33;;;17.20;1.00;;;;;;5060412;28;20175;-58
2021/08/21 05:54:20;;;;;;;8.10;7.40;;;17.30;1.00;;;;;;5060680;28;20214;-59
2021/08/21 05:56:46;;;;;;;7.40;6.80;;;17.50;1.00;;;;;;5059315;28;20214;-58
2021/08/21 05:59:11;;;;;;;9.30;8.40;;;17.60;1.00;;;;;;5065122;28;20258;-57
2021/08/21 06:01:38;;;;;;;7.97;7.20;;;17.80;1.00;;;;;;5058594;28;20188;-57
2021/08/21 06:04:05;;;;;;;9.07;7.80;;;17.80;1.00;;;;;;5056038;28;20219;-59
2021/08/21 06:06:32;;;;;;;8.13;7.33;;;17.90;1.00;;;;;;5058190;28;20410;-59
2021/08/21 06:08:58;;;;;;;7.43;6.80;;;17.90;1.00;;;;;;5062033;28;20515;-58
2021/08/21 06:11:23;;;;;;;8.00;7.20;;;18.20;1.00;;;;;;5061649;28;20434;-58
2021/08/21 06:13:49;;;;;;;8.10;7.30;;;18.30;1.00;;;;;;5056223;28;20184;-58
2021/08/21 06:16:15;;;;;;;7.50;6.70;;;18.40;1.00;;;;;;5056222;28;20188;-59
2021/08/21 06:18:40;;;;;;;7.43;6.73;;;18.50;1.00;;;;;;5064279;28;20187;-57
2021/08/21 06:21:06;;;;;;;8.10;7.40;;;18.50;1.00;;;;;;5067644;28;20441;-57
2021/08/21 06:23:31;;;;;;;7.37;6.77;;;18.60;1.00;;;;;;5068175;28;20222;-58
2021/08/21 06:25:57;;;;;;;7.67;6.97;;;18.60;1.00;;;;;;5057582;28;20185;-57
2021/08/21 06:28:23;;;;;;;8.07;7.37;;;18.70;1.00;;;;;;5052991;28;20735;-58
2021/08/21 06:30:48;;;;;;;7.50;6.90;;;18.70;1.00;;;;;;5051576;28;20645;-57
2021/08/21 06:33:14;;;;;;;7.70;7.03;;;18.70;1.00;;;;;;5063387;28;20245;-58
2021/08/21 06:35:39;;;;;;;7.47;6.77;;;18.80;1.00;;;;;;5063959;28;20208;-58
2021/08/21 06:38:05;;;;;;;7.03;6.43;;;18.90;1.00;;;;;;5054183;28;20238;-58
2021/08/21 06:40:30;;;;;;;7.70;7.00;;;19.00;1.00;;;;;;5060440;28;20641;-58
2021/08/21 06:42:56;;;;;;;7.43;6.83;;;19.10;1.00;;;;;;5071175;28;20176;-57
2021/08/21 06:45:21;;;;;;;8.00;7.20;;;19.20;1.00;;;;;;5065082;28;20222;-57
2021/08/21 06:47:47;;;;;;;8.13;7.40;;;19.40;1.00;;;;;;5054206;28;20195;-59
2021/08/21 06:50:13;;;;;;;8.00;7.20;;;19.50;1.00;;;;;;5069529;28;20760;-59
2021/08/21 06:52:38;;;;;;;8.60;7.50;;;19.50;1.00;;;;;;5051941;28;20188;-58
2021/08/21 06:55:04;;;;;;;7.80;7.20;;;19.50;1.00;;;;;;5051048;28;20205;-58
2021/08/21 06:57:30;;;;;;;7.07;6.37;;;19.60;1.00;;;;;;5050791;28;20181;-58
2021/08/21 06:59:57;;;;;;;7.93;7.17;;;19.50;1.00;;;;;;5064554;28;20420;-58
2021/08/21 07:02:24;;;;;;;8.70;7.33;;;19.70;1.00;;;;;;5055471;28;20441;-58
2021/08/21 07:04:50;;;;;;;7.50;6.80;;;19.70;1.00;;;;;;5066857;28;21026;-60
2021/08/21 07:07:16;;;;;;;6.80;6.20;;;20.00;1.00;;;;;;5050585;28;20550;-59
2021/08/21 07:09:41;;;;;;;7.77;6.90;;;20.10;1.00;;;;;;5053385;28;20196;-56
2021/08/21 07:12:07;;;;;;;7.57;6.87;;;20.20;1.00;;;;;;5053350;28;20209;-65
2021/08/21 07:14:32;;;;;;;7.93;7.13;;;20.40;1.00;;;;;;5056701;28;20208;-57
2021/08/21 07:16:58;;;;;;;9.23;6.60;;;20.60;1.00;;;;;;5055334;28;20204;-59
2021/08/21 07:19:24;;;;;;;8.40;7.57;;;20.70;1.00;;;;;;5067398;28;20200;-58
2021/08/21 07:21:53;;;;;;;6.70;6.10;;;20.80;1.00;;;;;;5054442;28;20314;-59
2021/08/21 07:24:19;;;;;;;7.50;6.80;;;20.80;1.00;;;;;;5059788;28;20263;-59
2021/08/21 07:26:45;;;;;;;8.40;7.60;;;20.90;1.00;;;;;;5061089;28;20662;-58
2021/08/21 07:29:10;;;;;;;9.13;6.73;;;21.00;1.00;;;;;;5062485;28;20402;-59
2021/08/21 07:31:36;;;;;;;7.17;6.47;;;21.00;1.00;;;;;;5055133;28;20238;-59
2021/08/21 07:34:01;;;;;;;7.90;6.13;;;21.20;1.00;;;;;;5059787;28;20299;-59
2021/08/21 07:36:27;;;;;;;7.83;6.60;;;21.40;1.00;;;;;;5054788;28;20181;-59
2021/08/21 07:38:52;;;;;;;7.50;6.90;;;21.50;1.00;;;;;;5062143;28;20256;-58
2021/08/21 07:41:18;;;;;;;8.03;7.33;;;21.70;1.00;;;;;;5058013;28;20178;-58
2021/08/21 07:43:44;;;;;;;6.97;6.37;;;21.80;1.00;;;;;;5057880;28;20588;-57
2021/08/21 07:46:09;;;;;;;8.50;6.33;;;21.90;1.00;;;;;;5059200;28;20420;-58
2021/08/21 07:48:35;;;;;;;6.67;6.13;;;22.10;1.00;;;;;;5061619;28;20258;-59
2021/08/21 07:51:00;;;;;;;7.33;6.70;;;22.10;1.00;;;;;;5056518;28;20180;-59
2021/08/21 07:53:26;;;;;;;7.40;6.80;;;22.20;1.00;;;;;;5055838;28;20186;-58
2021/08/21 07:55:52;;;;;;;6.43;5.83;;;22.20;1.00;;;;;;5058862;28;20203;-59
2021/08/21 07:58:17;;;;;;;7.97;7.00;;;22.10;1.00;;;;;;5056543;28;20193;-60
2021/08/21 08:00:43;;;;;;;6.90;6.20;;;22.10;1.00;;;;;;5060487;28;20182;-59
2021/08/21 08:03:12;;;;;;;7.00;6.40;;;22.00;1.00;;;;;;5061657;28;20195;-59
2021/08/21 08:05:38;;;;;;;7.37;6.40;;;22.00;1.00;;;;;;5059746;28;20259;-59
2021/08/21 08:08:04;;;;;;;7.10;6.50;;;22.20;1.00;;;;;;5061396;28;20448;-59
2021/08/21 08:10:30;;;;;;;7.67;6.97;;;22.40;1.00;;;;;;5059690;28;20431;-58
2021/08/21 08:12:55;;;;;;;6.00;5.40;;;22.40;1.00;;;;;;5052440;28;20444;-60
2021/08/21 08:15:21;;;;;;;7.60;6.97;;;22.50;1.00;;;;;;5057518;28;20208;-59
2021/08/21 08:17:46;;;;;;;7.37;6.77;;;22.60;1.00;;;;;;5060721;28;20202;-59
2021/08/21 08:20:13;;;;;;;6.90;6.40;;;22.80;1.00;;;;;;5057047;28;20181;-58
2021/08/21 08:22:39;;;;;;;6.47;5.87;;;23.00;1.00;;;;;;5060142;28;20187;-59
2021/08/21 08:25:05;;;;;;;6.43;5.83;;;23.30;1.00;;;;;;5055596;28;20442;-59
2021/08/21 08:27:31;;;;;;;7.30;6.70;;;23.60;1.00;;;;;;5057247;28;20923;-59
2021/08/21 08:29:56;;;;;;;7.83;5.80;;;23.80;1.00;;;;;;5056975;28;20456;-58
2021/08/21 08:32:22;;;;;;;5.97;5.53;;;24.00;1.00;;;;;;5058833;28;20192;-60
2021/08/21 08:34:47;;;;;;;6.63;5.87;;;24.10;1.00;;;;;;5056372;28;20229;-59
2021/08/21 08:37:13;;;;;;;6.60;6.00;;;24.40;1.00;;;;;;5059344;28;20180;-58
2021/08/21 08:39:42;;;;;;;6.37;5.87;;;24.50;1.00;;;;;;5050510;28;20182;-58
2021/08/21 08:42:09;;;;;;;6.83;6.23;;;24.70;1.00;;;;;;5052777;28;20186;-59
2021/08/21 08:44:35;;;;;;;5.87;5.37;;;24.80;1.00;;;;;;5057914;28;20421;-59
2021/08/21 08:47:02;;;;;;;6.43;5.93;;;24.70;1.00;;;;;;5064655;28;20432;-59
2021/08/21 08:49:28;;;;;;;7.60;6.10;;;24.70;1.00;;;;;;5054288;28;20733;-59
2021/08/21 08:51:54;;;;;;;9.93;6.43;;;24.80;1.00;;;;;;5061396;28;20497;-59
2021/08/21 08:54:20;;;;;;;5.53;5.03;;;25.10;1.00;;;;;;5055041;28;20810;-60
2021/08/21 08:56:46;;;;;;;6.77;6.20;;;25.30;1.00;;;;;;5052656;28;20442;-60
2021/08/21 08:59:12;;;;;;;6.03;5.43;;;25.70;1.00;;;;;;5060739;28;20448;-58
2021/08/21 09:01:41;;;;;;;7.70;6.30;;;25.90;1.00;;;;;;5064206;28;20179;-60
2021/08/21 09:04:18;;;;;;;6.10;5.50;;;25.80;1.00;;;;;;5064745;28;20182;-61
2021/08/21 09:06:44;;;;;;;6.50;5.90;;;25.60;1.00;;;;;;5055669;28;20526;-59
2021/08/21 09:09:12;;;;;;;6.87;6.17;;;25.60;1.00;;;;;;5060500;28;20885;-60
2021/08/21 09:11:46;;;;;;;6.70;6.10;;;25.70;1.00;;;;;;5065894;28;20450;-59
2021/08/21 09:14:38;;;;;;;6.17;5.53;;;25.70;1.00;;;;;;5062207;28;21056;-60
2021/08/21 09:17:17;;;;;;;7.17;5.97;;;25.80;1.00;;;;;;5056787;28;20443;-59
2021/08/21 09:19:42;;;;;;;7.40;6.70;;;25.80;1.00;;;;;;5057494;28;20431;-59
2021/08/21 09:22:10;;;;;;;5.20;4.80;;;26.00;1.00;;;;;;5052647;28;20447;-58
2021/08/21 09:24:37;;;;;;;5.67;5.03;;;25.90;1.00;;;;;;5060754;28;20203;-58
2021/08/21 09:27:23;;;;;;;5.20;4.80;;;26.00;1.00;;;;;;5058261;28;20465;-59
2021/08/21 09:30:07;;;;;;;5.90;5.40;;;25.90;1.00;;;;;;5065758;28;20451;-58
2021/08/21 09:32:33;;;;;;;4.97;4.57;;;26.00;1.00;;;;;;5067613;28;21164;-58
2021/08/21 09:35:05;;;;;;;5.20;4.80;;;26.00;1.00;;;;;;5066709;28;20468;-59
2021/08/21 09:37:55;;;;;;;4.37;4.07;;;26.50;1.00;;;;;;5072008;28;20444;-58
2021/08/21 09:40:28;;;;;;;4.77;4.37;;;26.80;1.00;;;;;;5062878;28;20447;-60
2021/08/21 09:42:54;;;;;;;6.37;5.87;;;26.90;1.00;;;;;;5056796;28;20502;-59
2021/08/21 09:45:21;;;;;;;5.23;4.73;;;27.00;1.00;;;;;;5057368;28;20427;-60
2021/08/21 09:47:47;;;;;;;4.93;4.53;;;27.30;1.00;;;;;;5069927;28;20952;-58
2021/08/21 09:50:15;;;;;;;5.13;4.77;;;27.50;1.00;;;;;;5053957;28;20489;-60
2021/08/21 09:52:41;;;;;;;5.00;4.50;;;27.60;1.00;;;;;;5057950;28;20457;-58
2021/08/21 09:55:10;;;;;;;4.97;4.57;;;27.60;1.00;;;;;;5059670;28;20473;-59
2021/08/21 09:57:36;;;;;;;5.70;5.20;;;27.70;1.00;;;;;;5058226;28;20806;-58
2021/08/21 10:00:04;;;;;;;4.83;4.43;;;27.10;1.00;;;;;;5054701;28;20952;-58
2021/08/21 10:02:31;;;;;;;11.33;6.07;;;26.90;1.00;;;;;;5052215;28;20449;-60
2021/08/21 10:04:57;;;;;;;5.73;5.20;;;27.10;1.00;;;;;;5062040;28;20441;-58
2021/08/21 10:07:26;;;;;;;5.53;5.13;;;27.30;1.00;;;;;;5051988;28;20458;-60
2021/08/21 10:09:53;;;;;;;5.07;4.67;;;27.30;1.00;;;;;;5051661;28;20429;-58
2021/08/21 10:12:23;;;;;;;6.17;5.67;;;27.30;1.00;;;;;;5053146;28;20445;-59
2021/08/21 10:14:49;;;;;;;8.73;5.10;;;27.20;1.00;;;;;;5054840;28;20976;-60
2021/08/21 10:17:19;;;;;;;5.20;4.80;;;27.20;1.00;;;;;;5058883;28;20422;-58
2021/08/21 10:19:47;;;;;;;6.07;4.20;;;27.40;1.00;;;;;;5068592;28;20783;-59
2021/08/21 10:22:13;;;;;;;6.33;4.50;;;27.40;1.00;;;;;;5069767;28;20418;-58
2021/08/21 10:24:46;;;;;;;4.90;4.50;;;27.60;1.00;;;;;;5071607;28;20911;-61
2021/08/21 10:27:19;;;;;;;5.40;4.90;;;27.30;1.00;;;;;;5058093;28;20516;-59
2021/08/21 10:30:08;;;;;;;6.03;5.43;;;27.00;1.00;;;;;;5062238;28;21103;-59
2021/08/21 10:32:40;;;;;;;5.20;4.67;;;27.10;1.00;;;;;;5070246;28;20806;-58
2021/08/21 10:35:07;;;;;;;5.63;5.13;;;27.40;1.00;;;;;;5070628;28;20491;-58
2021/08/21 10:37:38;;;;;;;5.10;4.60;;;27.20;1.00;;;;;;5072102;28;20479;-58
2021/08/21 10:40:28;;;;;;;5.43;4.93;;;27.20;1.00;;;;;;5072060;28;20414;-58
2021/08/21 10:42:59;;;;;;;4.93;4.53;;;27.80;1.00;;;;;;5066792;28;20507;-59
2021/08/21 10:45:39;;;;;;;5.20;4.80;;;28.20;1.00;;;;;;5051629;28;20926;-59
2021/08/21 10:48:06;;;;;;;4.73;4.33;;;28.60;1.00;;;;;;5051383;28;20441;-59
2021/08/21 10:50:36;;;;;;;4.73;4.33;;;28.70;1.00;;;;;;5051838;28;20445;-60
2021/08/21 10:53:05;;;;;;;5.20;4.77;;;28.70;1.00;;;;;;5056400;28;20436;-58
2021/08/21 10:55:36;;;;;;;5.77;5.17;;;28.40;1.00;;;;;;5071533;28;20490;-58
2021/08/21 10:58:16;;;;;;;4.83;4.43;;;28.30;1.00;;;;;;5071474;28;20925;-59
2021/08/21 11:01:02;;;;;;;5.50;4.20;;;28.50;1.00;;;;;;5069898;28;20438;-59
2021/08/21 11:03:30;;;;;;;4.73;4.33;;;28.60;1.00;;;;;;5071171;28;20992;-59
2021/08/21 11:06:04;;;;;;;4.90;4.50;;;28.70;1.00;;;;;;5071148;28;20457;-59
2021/08/21 11:08:32;;;;;;;4.77;3.83;;;28.60;1.00;;;;;;5057648;28;20519;-58
2021/08/21 11:14:05;;;;;;;4.43;4.03;;;28.10;1.00;;;;;;5052319;28;20436;-59
2021/08/21 11:17:05;;;;;;;5.17;4.60;;;28.30;1.00;;;;;;5062785;28;20437;-58
2021/08/21 11:19:31;;;;;;;6.83;4.53;;;28.30;1.00;;;;;;5059642;28;20420;-58
2021/08/21 11:22:09;;;;;;;5.63;4.73;;;28.00;1.00;;;;;;5059027;28;20427;-58
2021/08/21 11:24:35;;;;;;;4.80;4.40;;;27.70;1.00;;;;;;5057831;28;20418;-59
2021/08/21 11:27:22;;;;;;;4.70;4.30;;;27.50;1.00;;;;;;5070580;28;20515;-59
2021/08/21 11:30:08;;;;;;;4.77;4.37;;;27.20;1.00;;;;;;5071109;28;20770;-58
2021/08/21 11:32:44;;;;;;;5.00;4.60;;;27.10;1.00;;;;;;5071040;28;20422;-60
2021/08/21 11:35:25;;;;;;;5.00;4.60;;;27.20;1.00;;;;;;5070699;28;20971;-60
2021/08/21 11:37:53;;;;;;;4.93;4.50;;;27.30;1.00;;;;;;5070848;28;20432;-59
2021/08/21 11:40:21;;;;;;;4.70;4.30;;;27.60;1.00;;;;;;5070572;28;20454;-59
2021/08/21 11:42:54;;;;;;;4.13;3.80;;;27.70;1.00;;;;;;5071092;28;20497;-60
2021/08/21 11:45:21;;;;;;;4.23;3.93;;;28.30;1.00;;;;;;5062188;28;20420;-59
2021/08/21 11:47:50;;;;;;;4.03;3.73;;;29.80;1.00;;;;;;5052129;28;20470;-59
2021/08/21 11:50:29;;;;;;;6.10;4.90;;;29.60;1.00;;;;;;5050565;28;20413;-57
2021/08/21 11:52:56;;;;;;;4.90;4.50;;;30.10;1.00;;;;;;5060548;28;20413;-58
2021/08/21 11:55:23;;;;;;;4.80;4.40;;;30.20;1.00;;;;;;5050434;28;20957;-58
2021/08/21 11:57:50;;;;;;;4.03;3.73;;;30.40;1.00;;;;;;5049575;28;20781;-59
2021/08/21 12:00:22;;;;;;;4.83;4.43;;;29.80;1.00;;;;;;5050482;28;20432;-60
2021/08/21 12:02:57;;;;;;;5.00;4.60;;;29.30;1.00;;;;;;5049647;28;20405;-59
2021/08/21 12:05:26;;;;;;;4.60;4.20;;;28.80;1.00;;;;;;5067206;28;20498;-59
2021/08/21 12:07:51;;;;;;;5.17;4.77;;;28.70;1.00;;;;;;5050642;28;20450;-59
2021/08/21 12:10:17;;;;;;;4.33;4.00;;;28.90;1.00;;;;;;5050214;28;20422;-59
2021/08/21 12:12:43;;;;;;;4.10;3.80;;;29.40;1.00;;;;;;5056832;28;20190;-59
2021/08/21 12:15:09;;;;;;;4.10;3.70;;;29.40;1.00;;;;;;5063810;28;20616;-58
2021/08/21 12:17:35;;;;;;;5.47;4.40;;;29.20;1.00;;;;;;5059070;28;20514;-59
2021/08/21 12:20:02;;;;;;;4.13;3.83;;;29.20;1.00;;;;;;5050368;28;20418;-60
2021/08/21 12:22:29;;;;;;;4.33;3.90;;;29.50;1.00;;;;;;5049905;28;20417;-59
2021/08/21 12:24:57;;;;;;;3.83;3.53;;;29.70;1.00;;;;;;5054495;28;20409;-61
2021/08/21 12:27:24;;;;;;;4.40;4.00;;;29.90;1.00;;;;;;5056870;28;20877;-60
2021/08/21 12:30:08;;;;;;;3.50;3.30;;;30.00;1.00;;;;;;5049970;28;20431;-58
2021/08/21 12:32:34;;;;;;;4.03;3.73;;;30.10;1.00;;;;;;5052749;28;20402;-59
2021/08/21 12:35:19;;;;;;;4.07;3.70;;;29.60;1.00;;;;;;5059790;28;20462;-58
2021/08/21 12:38:01;;;;;;;4.90;3.70;;;29.60;1.00;;;;;;5065233;28;20180;-59
2021/08/21 12:40:26;;;;;;;5.03;3.97;;;28.90;1.00;;;;;;5063711;28;20408;-59
2021/08/21 12:43:01;;;;;;;4.10;3.80;;;28.40;1.00;;;;;;5073459;28;20923;-58
2021/08/21 12:45:27;;;;;;;3.97;3.57;;;28.50;1.00;;;;;;5073385;28;20183;-59
2021/08/21 12:47:52;;;;;;;5.00;4.50;;;28.20;1.00;;;;;;5053842;28;20404;-58
2021/08/21 12:50:20;;;;;;;3.47;3.27;;;28.20;1.00;;;;;;5062509;28;20250;-60
2021/08/21 12:53:03;;;;;;;4.27;3.87;;;28.60;1.00;;;;;;5059774;28;20185;-59
2021/08/21 12:55:30;;;;;;;5.83;3.53;;;28.90;1.00;;;;;;5067411;28;20468;-59
2021/08/21 12:58:10;;;;;;;4.90;4.47;;;28.90;1.00;;;;;;5056114;28;20413;-58